sensor_id;sensor_type;location;lat;lon;timestamp;P1;durP1;ratioP1;P2;durP2;ratioP2
69534;SDS011;56754;51.568;5.048;2022-09-01T00:00:10;2.10;;;0.83;;
69534;SDS011;56754;51.568;5.048;2022-09-01T00:02:37;2.33;;;0.85;;
69534;SDS011;56754;51.568;5.048;2022-09-01T00:05:03;3.63;;;0.90;;
69534;SDS011;56754;51.568;5.048;2022-09-01T00:07:28;3.88;;;0.70;;
69534;SDS011;56754;51.568;5.048;2022-09-01T00:09:54;3.53;;;0.90;;
69534;SDS011;56754;51.568;5.048;2022-09-01T00:12:19;1.83;;;0.63;;
69534;SDS011;56754;51.568;5.048;2022-09-01T00:14:44;2.87;;;0.80;;
69534;SDS011;56754;51.568;5.048;2022-09-01T00:17:10;2.00;;;0.60;;
69534;SDS011;56754;51.568;5.048;2022-09-01T00:19:36;2.85;;;0.70;;
69534;SDS011;56754;51.568;5.048;2022-09-01T00:22:03;2.70;;;0.80;;
69534;SDS011;56754;51.568;5.048;2022-09-01T00:24:29;1.67;;;0.70;;
69534;SDS011;56754;51.568;5.048;2022-09-01T00:26:55;2.27;;;0.60;;
69534;SDS011;56754;51.568;5.048;2022-09-01T00:29:21;2.33;;;0.75;;
69534;SDS011;56754;51.568;5.048;2022-09-01T00:31:46;2.05;;;0.65;;
69534;SDS011;56754;51.568;5.048;2022-09-01T00:34:12;3.00;;;0.60;;
69534;SDS011;56754;51.568;5.048;2022-09-01T00:36:38;2.13;;;0.55;;
69534;SDS011;56754;51.568;5.048;2022-09-01T00:39:04;1.83;;;0.53;;
69534;SDS011;56754;51.568;5.048;2022-09-01T00:41:31;3.28;;;0.73;;
69534;SDS011;56754;51.568;5.048;2022-09-01T00:43:59;2.78;;;0.70;;
69534;SDS011;56754;51.568;5.048;2022-09-01T00:46:32;2.25;;;0.60;;
69534;SDS011;56754;51.568;5.048;2022-09-01T00:49:02;2.43;;;0.80;;
69534;SDS011;56754;51.568;5.048;2022-09-01T00:51:53;1.40;;;0.50;;
69534;SDS011;56754;51.568;5.048;2022-09-01T00:54:22;2.33;;;0.70;;
69534;SDS011;56754;51.568;5.048;2022-09-01T00:56:51;2.60;;;0.70;;
69534;SDS011;56754;51.568;5.048;2022-09-01T00:59:18;2.65;;;0.50;;
69534;SDS011;56754;51.568;5.048;2022-09-01T01:01:45;1.93;;;0.67;;
69534;SDS011;56754;51.568;5.048;2022-09-01T01:04:10;2.45;;;0.68;;
69534;SDS011;56754;51.568;5.048;2022-09-01T01:06:36;3.07;;;0.73;;
69534;SDS011;56754;51.568;5.048;2022-09-01T01:09:01;2.00;;;0.63;;
69534;SDS011;56754;51.568;5.048;2022-09-01T01:11:27;1.80;;;0.60;;
69534;SDS011;56754;51.568;5.048;2022-09-01T01:13:59;1.90;;;0.60;;
69534;SDS011;56754;51.568;5.048;2022-09-01T01:16:27;2.65;;;0.68;;
69534;SDS011;56754;51.568;5.048;2022-09-01T01:18:53;3.45;;;0.80;;
69534;SDS011;56754;51.568;5.048;2022-09-01T01:21:21;2.03;;;0.70;;
69534;SDS011;56754;51.568;5.048;2022-09-01T01:23:52;2.25;;;0.70;;
69534;SDS011;56754;51.568;5.048;2022-09-01T01:26:26;2.70;;;0.77;;
69534;SDS011;56754;51.568;5.048;2022-09-01T01:28:52;1.93;;;0.60;;
69534;SDS011;56754;51.568;5.048;2022-09-01T01:31:17;2.57;;;0.60;;
69534;SDS011;56754;51.568;5.048;2022-09-01T01:36:11;3.13;;;0.70;;
69534;SDS011;56754;51.568;5.048;2022-09-01T01:38:43;2.30;;;0.70;;
69534;SDS011;56754;51.568;5.048;2022-09-01T01:41:09;2.63;;;0.60;;
69534;SDS011;56754;51.568;5.048;2022-09-01T01:43:35;2.20;;;0.60;;
69534;SDS011;56754;51.568;5.048;2022-09-01T01:46:02;1.80;;;0.50;;
69534;SDS011;56754;51.568;5.048;2022-09-01T01:48:29;3.13;;;0.77;;
69534;SDS011;56754;51.568;5.048;2022-09-01T01:50:55;2.10;;;0.53;;
69534;SDS011;56754;51.568;5.048;2022-09-01T01:53:20;2.67;;;0.70;;
69534;SDS011;56754;51.568;5.048;2022-09-01T01:55:47;2.10;;;0.60;;
69534;SDS011;56754;51.568;5.048;2022-09-01T01:58:13;1.42;;;0.50;;
69534;SDS011;56754;51.568;5.048;2022-09-01T02:00:38;2.60;;;0.60;;
69534;SDS011;56754;51.568;5.048;2022-09-01T02:03:03;3.03;;;0.73;;
69534;SDS011;56754;51.568;5.048;2022-09-01T02:05:30;2.73;;;0.80;;
69534;SDS011;56754;51.568;5.048;2022-09-01T02:08:05;2.60;;;0.80;;
69534;SDS011;56754;51.568;5.048;2022-09-01T02:10:33;2.75;;;0.70;;
69534;SDS011;56754;51.568;5.048;2022-09-01T02:13:02;3.30;;;0.80;;
69534;SDS011;56754;51.568;5.048;2022-09-01T02:15:30;1.75;;;0.55;;
69534;SDS011;56754;51.568;5.048;2022-09-01T02:17:56;2.47;;;0.43;;
69534;SDS011;56754;51.568;5.048;2022-09-01T02:20:21;2.50;;;0.50;;
69534;SDS011;56754;51.568;5.048;2022-09-01T02:22:46;1.83;;;0.70;;
69534;SDS011;56754;51.568;5.048;2022-09-01T02:25:11;2.17;;;0.73;;
69534;SDS011;56754;51.568;5.048;2022-09-01T02:27:37;1.83;;;0.60;;
69534;SDS011;56754;51.568;5.048;2022-09-01T02:30:02;1.97;;;0.67;;
69534;SDS011;56754;51.568;5.048;2022-09-01T02:32:28;1.77;;;0.60;;
69534;SDS011;56754;51.568;5.048;2022-09-01T02:34:53;2.27;;;0.60;;
69534;SDS011;56754;51.568;5.048;2022-09-01T02:37:19;2.07;;;0.60;;
69534;SDS011;56754;51.568;5.048;2022-09-01T02:39:45;2.78;;;0.77;;
69534;SDS011;56754;51.568;5.048;2022-09-01T02:42:10;2.20;;;0.77;;
69534;SDS011;56754;51.568;5.048;2022-09-01T02:44:35;2.43;;;0.70;;
69534;SDS011;56754;51.568;5.048;2022-09-01T02:47:01;1.93;;;0.53;;
69534;SDS011;56754;51.568;5.048;2022-09-01T02:49:26;1.70;;;0.70;;
69534;SDS011;56754;51.568;5.048;2022-09-01T02:51:52;2.37;;;0.70;;
69534;SDS011;56754;51.568;5.048;2022-09-01T02:54:18;2.08;;;0.75;;
69534;SDS011;56754;51.568;5.048;2022-09-01T02:56:45;1.88;;;0.60;;
69534;SDS011;56754;51.568;5.048;2022-09-01T02:59:10;1.70;;;0.60;;
69534;SDS011;56754;51.568;5.048;2022-09-01T03:01:36;2.43;;;0.70;;
69534;SDS011;56754;51.568;5.048;2022-09-01T03:04:02;2.00;;;0.57;;
69534;SDS011;56754;51.568;5.048;2022-09-01T03:06:28;3.10;;;0.57;;
69534;SDS011;56754;51.568;5.048;2022-09-01T03:08:55;2.28;;;0.80;;
69534;SDS011;56754;51.568;5.048;2022-09-01T03:11:22;2.38;;;0.80;;
69534;SDS011;56754;51.568;5.048;2022-09-01T03:13:47;2.17;;;0.73;;
69534;SDS011;56754;51.568;5.048;2022-09-01T03:16:12;2.10;;;0.60;;
69534;SDS011;56754;51.568;5.048;2022-09-01T03:18:38;2.43;;;0.60;;
69534;SDS011;56754;51.568;5.048;2022-09-01T03:21:04;2.22;;;0.70;;
69534;SDS011;56754;51.568;5.048;2022-09-01T03:23:30;2.53;;;0.60;;
69534;SDS011;56754;51.568;5.048;2022-09-01T03:25:56;2.27;;;0.50;;
69534;SDS011;56754;51.568;5.048;2022-09-01T03:28:22;1.58;;;0.57;;
69534;SDS011;56754;51.568;5.048;2022-09-01T03:30:49;2.22;;;0.65;;
69534;SDS011;56754;51.568;5.048;2022-09-01T03:33:17;3.07;;;0.60;;
69534;SDS011;56754;51.568;5.048;2022-09-01T03:35:44;3.05;;;0.73;;
69534;SDS011;56754;51.568;5.048;2022-09-01T03:38:09;1.73;;;0.60;;
69534;SDS011;56754;51.568;5.048;2022-09-01T03:40:35;2.83;;;0.70;;
69534;SDS011;56754;51.568;5.048;2022-09-01T03:43:02;2.23;;;0.70;;
69534;SDS011;56754;51.568;5.048;2022-09-01T03:45:30;2.13;;;0.60;;
69534;SDS011;56754;51.568;5.048;2022-09-01T03:47:56;3.05;;;0.80;;
69534;SDS011;56754;51.568;5.048;2022-09-01T03:50:22;1.90;;;0.70;;
69534;SDS011;56754;51.568;5.048;2022-09-01T03:52:54;2.22;;;0.60;;
69534;SDS011;56754;51.568;5.048;2022-09-01T03:55:23;2.35;;;0.93;;
69534;SDS011;56754;51.568;5.048;2022-09-01T03:57:55;2.75;;;0.88;;
69534;SDS011;56754;51.568;5.048;2022-09-01T04:00:22;4.53;;;0.80;;
69534;SDS011;56754;51.568;5.048;2022-09-01T04:02:50;2.47;;;0.75;;
69534;SDS011;56754;51.568;5.048;2022-09-01T04:05:18;2.78;;;0.90;;
69534;SDS011;56754;51.568;5.048;2022-09-01T04:07:44;2.78;;;0.70;;
69534;SDS011;56754;51.568;5.048;2022-09-01T04:10:09;2.03;;;0.70;;
69534;SDS011;56754;51.568;5.048;2022-09-01T04:12:35;2.63;;;0.80;;
69534;SDS011;56754;51.568;5.048;2022-09-01T04:15:00;2.70;;;0.90;;
69534;SDS011;56754;51.568;5.048;2022-09-01T04:17:25;3.47;;;0.60;;
69534;SDS011;56754;51.568;5.048;2022-09-01T04:19:50;3.40;;;1.00;;
69534;SDS011;56754;51.568;5.048;2022-09-01T04:22:15;2.15;;;0.60;;
69534;SDS011;56754;51.568;5.048;2022-09-01T04:24:41;2.13;;;0.70;;
69534;SDS011;56754;51.568;5.048;2022-09-01T04:27:07;2.17;;;0.60;;
69534;SDS011;56754;51.568;5.048;2022-09-01T04:29:32;2.20;;;0.70;;
69534;SDS011;56754;51.568;5.048;2022-09-01T04:31:59;2.70;;;0.70;;
69534;SDS011;56754;51.568;5.048;2022-09-01T04:34:26;2.40;;;0.70;;
69534;SDS011;56754;51.568;5.048;2022-09-01T04:36:52;3.65;;;0.82;;
69534;SDS011;56754;51.568;5.048;2022-09-01T04:39:18;1.83;;;0.60;;
69534;SDS011;56754;51.568;5.048;2022-09-01T04:41:44;2.10;;;0.80;;
69534;SDS011;56754;51.568;5.048;2022-09-01T04:44:10;2.85;;;0.65;;
69534;SDS011;56754;51.568;5.048;2022-09-01T04:46:39;1.97;;;0.80;;
69534;SDS011;56754;51.568;5.048;2022-09-01T04:49:06;1.55;;;0.60;;
69534;SDS011;56754;51.568;5.048;2022-09-01T04:51:32;3.22;;;0.88;;
69534;SDS011;56754;51.568;5.048;2022-09-01T04:53:57;2.27;;;0.70;;
69534;SDS011;56754;51.568;5.048;2022-09-01T04:56:24;1.88;;;0.70;;
69534;SDS011;56754;51.568;5.048;2022-09-01T04:58:50;3.10;;;0.63;;
69534;SDS011;56754;51.568;5.048;2022-09-01T05:01:21;3.38;;;0.80;;
69534;SDS011;56754;51.568;5.048;2022-09-01T05:03:49;2.55;;;0.68;;
69534;SDS011;56754;51.568;5.048;2022-09-01T05:06:16;2.55;;;0.77;;
69534;SDS011;56754;51.568;5.048;2022-09-01T05:08:43;2.05;;;0.70;;
69534;SDS011;56754;51.568;5.048;2022-09-01T05:11:08;2.10;;;0.70;;
69534;SDS011;56754;51.568;5.048;2022-09-01T05:13:34;2.53;;;0.80;;
69534;SDS011;56754;51.568;5.048;2022-09-01T05:16:03;2.20;;;0.70;;
69534;SDS011;56754;51.568;5.048;2022-09-01T05:18:31;2.38;;;0.75;;
69534;SDS011;56754;51.568;5.048;2022-09-01T05:20:57;1.75;;;0.70;;
69534;SDS011;56754;51.568;5.048;2022-09-01T05:23:22;2.27;;;0.60;;
69534;SDS011;56754;51.568;5.048;2022-09-01T05:25:49;4.00;;;0.93;;
69534;SDS011;56754;51.568;5.048;2022-09-01T05:28:16;1.90;;;0.70;;
69534;SDS011;56754;51.568;5.048;2022-09-01T05:30:43;2.70;;;0.70;;
69534;SDS011;56754;51.568;5.048;2022-09-01T05:33:09;2.22;;;0.70;;
69534;SDS011;56754;51.568;5.048;2022-09-01T05:35:36;2.53;;;0.75;;
69534;SDS011;56754;51.568;5.048;2022-09-01T05:38:03;3.78;;;0.80;;
69534;SDS011;56754;51.568;5.048;2022-09-01T05:40:28;2.40;;;0.80;;
69534;SDS011;56754;51.568;5.048;2022-09-01T05:42:53;2.30;;;0.80;;
69534;SDS011;56754;51.568;5.048;2022-09-01T05:45:19;1.90;;;0.70;;
69534;SDS011;56754;51.568;5.048;2022-09-01T05:47:44;3.33;;;0.90;;
69534;SDS011;56754;51.568;5.048;2022-09-01T05:50:09;3.53;;;0.97;;
69534;SDS011;56754;51.568;5.048;2022-09-01T05:52:36;2.97;;;0.80;;
69534;SDS011;56754;51.568;5.048;2022-09-01T05:55:03;3.47;;;0.80;;
69534;SDS011;56754;51.568;5.048;2022-09-01T05:57:29;4.05;;;0.80;;
69534;SDS011;56754;51.568;5.048;2022-09-01T05:59:54;4.30;;;0.80;;
69534;SDS011;56754;51.568;5.048;2022-09-01T06:02:20;2.47;;;0.63;;
69534;SDS011;56754;51.568;5.048;2022-09-01T06:04:46;2.17;;;0.70;;
69534;SDS011;56754;51.568;5.048;2022-09-01T06:07:12;3.03;;;0.80;;
69534;SDS011;56754;51.568;5.048;2022-09-01T06:09:40;3.47;;;0.75;;
69534;SDS011;56754;51.568;5.048;2022-09-01T06:12:08;4.05;;;0.70;;
69534;SDS011;56754;51.568;5.048;2022-09-01T06:14:34;2.97;;;1.20;;
69534;SDS011;56754;51.568;5.048;2022-09-01T06:17:00;2.70;;;0.77;;
69534;SDS011;56754;51.568;5.048;2022-09-01T06:19:25;2.63;;;0.80;;
69534;SDS011;56754;51.568;5.048;2022-09-01T06:21:50;2.40;;;0.70;;
69534;SDS011;56754;51.568;5.048;2022-09-01T06:24:16;2.73;;;0.60;;
69534;SDS011;56754;51.568;5.048;2022-09-01T06:26:41;4.13;;;1.00;;
69534;SDS011;56754;51.568;5.048;2022-09-01T06:29:08;2.83;;;0.90;;
69534;SDS011;56754;51.568;5.048;2022-09-01T06:31:35;2.85;;;0.80;;
69534;SDS011;56754;51.568;5.048;2022-09-01T06:34:01;3.27;;;1.00;;
69534;SDS011;56754;51.568;5.048;2022-09-01T06:36:27;2.50;;;0.80;;
69534;SDS011;56754;51.568;5.048;2022-09-01T06:38:54;3.30;;;1.00;;
69534;SDS011;56754;51.568;5.048;2022-09-01T06:41:19;2.87;;;0.90;;
69534;SDS011;56754;51.568;5.048;2022-09-01T06:43:46;4.43;;;0.95;;
69534;SDS011;56754;51.568;5.048;2022-09-01T06:46:17;2.47;;;0.90;;
69534;SDS011;56754;51.568;5.048;2022-09-01T06:48:43;3.58;;;0.75;;
69534;SDS011;56754;51.568;5.048;2022-09-01T06:51:08;2.60;;;0.73;;
69534;SDS011;56754;51.568;5.048;2022-09-01T06:53:34;3.43;;;0.90;;
69534;SDS011;56754;51.568;5.048;2022-09-01T06:55:59;3.27;;;1.00;;
69534;SDS011;56754;51.568;5.048;2022-09-01T06:58:25;3.40;;;1.00;;
69534;SDS011;56754;51.568;5.048;2022-09-01T07:00:50;2.80;;;0.85;;
69534;SDS011;56754;51.568;5.048;2022-09-01T07:03:16;3.75;;;0.80;;
69534;SDS011;56754;51.568;5.048;2022-09-01T07:05:43;3.70;;;0.90;;
69534;SDS011;56754;51.568;5.048;2022-09-01T07:08:11;3.05;;;0.90;;
69534;SDS011;56754;51.568;5.048;2022-09-01T07:10:42;3.60;;;0.73;;
69534;SDS011;56754;51.568;5.048;2022-09-01T07:13:10;4.22;;;0.80;;
69534;SDS011;56754;51.568;5.048;2022-09-01T07:15:41;2.88;;;0.80;;
69534;SDS011;56754;51.568;5.048;2022-09-01T07:18:06;5.10;;;1.03;;
69534;SDS011;56754;51.568;5.048;2022-09-01T07:20:32;3.23;;;1.00;;
69534;SDS011;56754;51.568;5.048;2022-09-01T07:22:57;2.97;;;0.90;;
69534;SDS011;56754;51.568;5.048;2022-09-01T07:25:22;2.97;;;0.90;;
69534;SDS011;56754;51.568;5.048;2022-09-01T07:27:47;2.97;;;1.10;;
69534;SDS011;56754;51.568;5.048;2022-09-01T07:30:13;2.63;;;0.90;;
69534;SDS011;56754;51.568;5.048;2022-09-01T07:32:40;3.92;;;1.00;;
69534;SDS011;56754;51.568;5.048;2022-09-01T07:35:06;3.63;;;1.00;;
69534;SDS011;56754;51.568;5.048;2022-09-01T07:37:31;3.22;;;1.05;;
69534;SDS011;56754;51.568;5.048;2022-09-01T07:39:56;3.00;;;0.90;;
69534;SDS011;56754;51.568;5.048;2022-09-01T07:42:22;3.43;;;1.00;;
69534;SDS011;56754;51.568;5.048;2022-09-01T07:44:47;3.83;;;1.00;;
69534;SDS011;56754;51.568;5.048;2022-09-01T07:47:12;4.30;;;1.20;;
69534;SDS011;56754;51.568;5.048;2022-09-01T07:49:38;3.47;;;1.10;;
69534;SDS011;56754;51.568;5.048;2022-09-01T07:52:03;3.97;;;1.10;;
69534;SDS011;56754;51.568;5.048;2022-09-01T07:54:29;2.97;;;0.90;;
69534;SDS011;56754;51.568;5.048;2022-09-01T07:56:55;13.68;;;2.28;;
69534;SDS011;56754;51.568;5.048;2022-09-01T07:59:20;15.77;;;2.13;;
69534;SDS011;56754;51.568;5.048;2022-09-01T08:01:46;11.75;;;1.60;;
69534;SDS011;56754;51.568;5.048;2022-09-01T08:04:12;4.80;;;1.10;;
69534;SDS011;56754;51.568;5.048;2022-09-01T08:06:37;3.50;;;1.37;;
69534;SDS011;56754;51.568;5.048;2022-09-01T08:09:03;3.28;;;0.90;;
69534;SDS011;56754;51.568;5.048;2022-09-01T08:11:29;4.23;;;1.30;;
69534;SDS011;56754;51.568;5.048;2022-09-01T08:13:55;3.58;;;1.10;;
69534;SDS011;56754;51.568;5.048;2022-09-01T08:16:22;3.90;;;1.05;;
69534;SDS011;56754;51.568;5.048;2022-09-01T08:18:47;5.10;;;1.60;;
69534;SDS011;56754;51.568;5.048;2022-09-01T08:21:13;3.53;;;1.40;;
69534;SDS011;56754;51.568;5.048;2022-09-01T08:23:39;3.22;;;1.10;;
69534;SDS011;56754;51.568;5.048;2022-09-01T08:26:10;3.10;;;1.00;;
69534;SDS011;56754;51.568;5.048;2022-09-01T08:28:37;4.18;;;1.13;;
69534;SDS011;56754;51.568;5.048;2022-09-01T08:31:10;3.90;;;1.10;;
69534;SDS011;56754;51.568;5.048;2022-09-01T08:33:37;4.80;;;1.20;;
69534;SDS011;56754;51.568;5.048;2022-09-01T08:36:05;3.35;;;1.00;;
69534;SDS011;56754;51.568;5.048;2022-09-01T08:38:32;5.38;;;1.45;;
69534;SDS011;56754;51.568;5.048;2022-09-01T08:40:57;4.67;;;1.20;;
69534;SDS011;56754;51.568;5.048;2022-09-01T08:46:11;3.67;;;1.20;;
69534;SDS011;56754;51.568;5.048;2022-09-01T08:48:57;2.78;;;0.93;;
69534;SDS011;56754;51.568;5.048;2022-09-01T08:51:37;3.63;;;1.20;;
69534;SDS011;56754;51.568;5.048;2022-09-01T08:54:13;3.20;;;1.10;;
69534;SDS011;56754;51.568;5.048;2022-09-01T08:56:42;3.55;;;1.10;;
69534;SDS011;56754;51.568;5.048;2022-09-01T08:59:08;2.57;;;0.83;;
69534;SDS011;56754;51.568;5.048;2022-09-01T09:01:43;4.95;;;1.00;;
69534;SDS011;56754;51.568;5.048;2022-09-01T09:06:56;2.67;;;0.90;;
69534;SDS011;56754;51.568;5.048;2022-09-01T09:09:56;3.10;;;1.10;;
69534;SDS011;56754;51.568;5.048;2022-09-01T09:12:44;3.85;;;1.17;;
69534;SDS011;56754;51.568;5.048;2022-09-01T09:15:49;4.38;;;1.17;;
69534;SDS011;56754;51.568;5.048;2022-09-01T09:24:02;2.43;;;0.80;;
69534;SDS011;56754;51.568;5.048;2022-09-01T09:26:34;2.72;;;0.60;;
69534;SDS011;56754;51.568;5.048;2022-09-01T09:28:59;2.37;;;0.80;;
69534;SDS011;56754;51.568;5.048;2022-09-01T09:31:26;3.77;;;0.90;;
69534;SDS011;56754;51.568;5.048;2022-09-01T09:33:54;2.80;;;0.90;;
69534;SDS011;56754;51.568;5.048;2022-09-01T09:36:21;3.17;;;1.13;;
69534;SDS011;56754;51.568;5.048;2022-09-01T09:39:06;3.37;;;1.20;;
69534;SDS011;56754;51.568;5.048;2022-09-01T09:41:34;3.42;;;1.10;;
69534;SDS011;56754;51.568;5.048;2022-09-01T09:51:43;2.53;;;0.75;;
69534;SDS011;56754;51.568;5.048;2022-09-01T09:54:24;3.33;;;1.17;;
69534;SDS011;56754;51.568;5.048;2022-09-01T09:59:37;2.73;;;0.83;;
69534;SDS011;56754;51.568;5.048;2022-09-01T10:04:59;2.85;;;0.80;;
69534;SDS011;56754;51.568;5.048;2022-09-01T10:12:48;2.70;;;0.80;;
69534;SDS011;56754;51.568;5.048;2022-09-01T10:15:15;2.80;;;0.70;;
69534;SDS011;56754;51.568;5.048;2022-09-01T10:17:46;3.30;;;0.80;;
69534;SDS011;56754;51.568;5.048;2022-09-01T10:20:15;1.90;;;0.80;;
69534;SDS011;56754;51.568;5.048;2022-09-01T10:22:45;2.65;;;0.68;;
69534;SDS011;56754;51.568;5.048;2022-09-01T10:25:16;2.17;;;0.77;;
69534;SDS011;56754;51.568;5.048;2022-09-01T10:27:46;3.63;;;0.90;;
69534;SDS011;56754;51.568;5.048;2022-09-01T10:30:17;2.30;;;0.77;;
69534;SDS011;56754;51.568;5.048;2022-09-01T10:35:31;3.05;;;0.88;;
69534;SDS011;56754;51.568;5.048;2022-09-01T10:37:59;2.38;;;0.70;;
69534;SDS011;56754;51.568;5.048;2022-09-01T10:42:55;2.50;;;0.90;;
69534;SDS011;56754;51.568;5.048;2022-09-01T10:45:32;2.55;;;0.80;;
69534;SDS011;56754;51.568;5.048;2022-09-01T10:50:44;2.78;;;0.70;;
69534;SDS011;56754;51.568;5.048;2022-09-01T10:53:30;1.92;;;0.63;;
69534;SDS011;56754;51.568;5.048;2022-09-01T10:56:14;3.40;;;0.90;;
69534;SDS011;56754;51.568;5.048;2022-09-01T11:04:04;2.72;;;0.85;;
69534;SDS011;56754;51.568;5.048;2022-09-01T11:09:05;2.03;;;0.70;;
69534;SDS011;56754;51.568;5.048;2022-09-01T11:11:37;2.20;;;0.73;;
69534;SDS011;56754;51.568;5.048;2022-09-01T11:14:17;3.60;;;0.70;;
69534;SDS011;56754;51.568;5.048;2022-09-01T11:22:40;2.93;;;0.70;;
69534;SDS011;56754;51.568;5.048;2022-09-01T11:27:55;2.40;;;0.70;;
69534;SDS011;56754;51.568;5.048;2022-09-01T11:30:34;2.72;;;0.75;;
69534;SDS011;56754;51.568;5.048;2022-09-01T11:36:33;2.40;;;0.90;;
69534;SDS011;56754;51.568;5.048;2022-09-01T11:44:09;2.22;;;0.70;;
69534;SDS011;56754;51.568;5.048;2022-09-01T11:46:38;3.13;;;0.80;;
69534;SDS011;56754;51.568;5.048;2022-09-01T11:49:07;1.93;;;0.60;;
69534;SDS011;56754;51.568;5.048;2022-09-01T11:51:46;2.85;;;0.80;;
69534;SDS011;56754;51.568;5.048;2022-09-01T11:54:12;2.58;;;0.80;;
69534;SDS011;56754;51.568;5.048;2022-09-01T11:56:38;2.73;;;0.73;;
69534;SDS011;56754;51.568;5.048;2022-09-01T11:59:04;2.60;;;0.75;;
69534;SDS011;56754;51.568;5.048;2022-09-01T12:01:30;3.33;;;0.83;;
69534;SDS011;56754;51.568;5.048;2022-09-01T12:04:06;3.10;;;0.80;;
69534;SDS011;56754;51.568;5.048;2022-09-01T12:07:22;1.57;;;0.60;;
69534;SDS011;56754;51.568;5.048;2022-09-01T12:09:47;2.58;;;0.73;;
69534;SDS011;56754;51.568;5.048;2022-09-01T12:17:22;2.72;;;0.70;;
69534;SDS011;56754;51.568;5.048;2022-09-01T12:19:48;2.63;;;0.80;;
69534;SDS011;56754;51.568;5.048;2022-09-01T12:22:14;2.72;;;0.90;;
69534;SDS011;56754;51.568;5.048;2022-09-01T12:24:46;2.00;;;0.70;;
69534;SDS011;56754;51.568;5.048;2022-09-01T12:27:14;2.20;;;0.70;;
69534;SDS011;56754;51.568;5.048;2022-09-01T12:29:40;2.43;;;0.90;;
69534;SDS011;56754;51.568;5.048;2022-09-01T12:32:06;2.60;;;0.70;;
69534;SDS011;56754;51.568;5.048;2022-09-01T12:37:02;3.67;;;0.80;;
69534;SDS011;56754;51.568;5.048;2022-09-01T12:39:31;1.80;;;0.80;;
69534;SDS011;56754;51.568;5.048;2022-09-01T12:44:33;2.53;;;0.70;;
69534;SDS011;56754;51.568;5.048;2022-09-01T12:47:09;1.88;;;0.70;;
69534;SDS011;56754;51.568;5.048;2022-09-01T12:49:43;3.30;;;0.90;;
69534;SDS011;56754;51.568;5.048;2022-09-01T12:54:35;2.30;;;0.80;;
69534;SDS011;56754;51.568;5.048;2022-09-01T12:57:01;2.50;;;0.80;;
69534;SDS011;56754;51.568;5.048;2022-09-01T12:59:27;2.73;;;0.90;;
69534;SDS011;56754;51.568;5.048;2022-09-01T13:01:52;2.47;;;0.70;;
69534;SDS011;56754;51.568;5.048;2022-09-01T13:06:45;2.40;;;0.82;;
69534;SDS011;56754;51.568;5.048;2022-09-01T13:09:11;3.57;;;0.80;;
69534;SDS011;56754;51.568;5.048;2022-09-01T13:11:36;3.07;;;0.80;;
69534;SDS011;56754;51.568;5.048;2022-09-01T13:14:02;2.10;;;0.70;;
69534;SDS011;56754;51.568;5.048;2022-09-01T13:16:27;1.88;;;0.77;;
69534;SDS011;56754;51.568;5.048;2022-09-01T13:18:53;2.80;;;0.70;;
69534;SDS011;56754;51.568;5.048;2022-09-01T13:21:18;1.97;;;0.70;;
69534;SDS011;56754;51.568;5.048;2022-09-01T13:23:43;2.20;;;0.70;;
69534;SDS011;56754;51.568;5.048;2022-09-01T13:26:09;2.83;;;0.80;;
69534;SDS011;56754;51.568;5.048;2022-09-01T13:28:34;2.60;;;0.80;;
69534;SDS011;56754;51.568;5.048;2022-09-01T13:31:03;2.00;;;0.70;;
69534;SDS011;56754;51.568;5.048;2022-09-01T13:33:29;3.25;;;0.88;;
69534;SDS011;56754;51.568;5.048;2022-09-01T13:35:54;3.10;;;0.80;;
69534;SDS011;56754;51.568;5.048;2022-09-01T13:38:20;2.30;;;0.70;;
69534;SDS011;56754;51.568;5.048;2022-09-01T13:40:46;3.10;;;0.70;;
69534;SDS011;56754;51.568;5.048;2022-09-01T13:43:13;5.47;;;0.70;;
69534;SDS011;56754;51.568;5.048;2022-09-01T13:45:40;2.13;;;0.70;;
69534;SDS011;56754;51.568;5.048;2022-09-01T13:48:06;3.55;;;0.80;;
69534;SDS011;56754;51.568;5.048;2022-09-01T13:50:32;2.33;;;0.70;;
69534;SDS011;56754;51.568;5.048;2022-09-01T13:52:58;1.97;;;0.77;;
69534;SDS011;56754;51.568;5.048;2022-09-01T13:55:27;2.10;;;0.70;;
69534;SDS011;56754;51.568;5.048;2022-09-01T13:57:55;1.90;;;0.73;;
69534;SDS011;56754;51.568;5.048;2022-09-01T14:00:22;2.20;;;0.80;;
69534;SDS011;56754;51.568;5.048;2022-09-01T14:02:49;2.63;;;0.80;;
69534;SDS011;56754;51.568;5.048;2022-09-01T14:05:16;2.08;;;0.68;;
69534;SDS011;56754;51.568;5.048;2022-09-01T14:07:47;2.25;;;0.60;;
69534;SDS011;56754;51.568;5.048;2022-09-01T14:10:12;1.77;;;0.70;;
69534;SDS011;56754;51.568;5.048;2022-09-01T14:12:37;1.93;;;0.70;;
69534;SDS011;56754;51.568;5.048;2022-09-01T14:15:03;2.85;;;0.68;;
69534;SDS011;56754;51.568;5.048;2022-09-01T14:17:29;2.00;;;0.60;;
69534;SDS011;56754;51.568;5.048;2022-09-01T14:19:54;2.47;;;0.80;;
69534;SDS011;56754;51.568;5.048;2022-09-01T14:22:23;2.57;;;0.90;;
69534;SDS011;56754;51.568;5.048;2022-09-01T14:24:48;2.90;;;0.63;;
69534;SDS011;56754;51.568;5.048;2022-09-01T14:27:13;2.00;;;0.50;;
69534;SDS011;56754;51.568;5.048;2022-09-01T14:29:39;1.93;;;0.60;;
69534;SDS011;56754;51.568;5.048;2022-09-01T14:32:04;2.67;;;0.70;;
69534;SDS011;56754;51.568;5.048;2022-09-01T14:34:29;1.93;;;0.50;;
69534;SDS011;56754;51.568;5.048;2022-09-01T14:36:55;1.47;;;0.50;;
69534;SDS011;56754;51.568;5.048;2022-09-01T14:39:20;2.30;;;0.80;;
69534;SDS011;56754;51.568;5.048;2022-09-01T14:41:45;2.03;;;0.70;;
69534;SDS011;56754;51.568;5.048;2022-09-01T14:44:11;3.13;;;0.80;;
69534;SDS011;56754;51.568;5.048;2022-09-01T14:46:36;2.13;;;0.80;;
69534;SDS011;56754;51.568;5.048;2022-09-01T14:49:02;3.53;;;0.70;;
69534;SDS011;56754;51.568;5.048;2022-09-01T14:51:28;1.70;;;0.60;;
69534;SDS011;56754;51.568;5.048;2022-09-01T14:53:54;2.00;;;0.60;;
69534;SDS011;56754;51.568;5.048;2022-09-01T14:56:20;2.00;;;0.70;;
69534;SDS011;56754;51.568;5.048;2022-09-01T14:58:47;2.67;;;0.80;;
69534;SDS011;56754;51.568;5.048;2022-09-01T15:01:13;1.52;;;0.60;;
69534;SDS011;56754;51.568;5.048;2022-09-01T15:03:41;5.32;;;0.80;;
69534;SDS011;56754;51.568;5.048;2022-09-01T15:06:07;3.90;;;0.87;;
69534;SDS011;56754;51.568;5.048;2022-09-01T15:08:34;1.60;;;0.70;;
69534;SDS011;56754;51.568;5.048;2022-09-01T15:11:00;3.60;;;0.77;;
69534;SDS011;56754;51.568;5.048;2022-09-01T15:13:25;2.70;;;0.70;;
69534;SDS011;56754;51.568;5.048;2022-09-01T15:15:51;1.88;;;0.80;;
69534;SDS011;56754;51.568;5.048;2022-09-01T15:18:16;3.53;;;0.80;;
69534;SDS011;56754;51.568;5.048;2022-09-01T15:20:41;2.00;;;0.60;;
69534;SDS011;56754;51.568;5.048;2022-09-01T15:23:07;1.63;;;0.60;;
69534;SDS011;56754;51.568;5.048;2022-09-01T15:25:32;2.43;;;0.73;;
69534;SDS011;56754;51.568;5.048;2022-09-01T15:27:58;1.20;;;0.60;;
69534;SDS011;56754;51.568;5.048;2022-09-01T15:30:23;2.30;;;0.73;;
69534;SDS011;56754;51.568;5.048;2022-09-01T15:32:49;1.50;;;0.60;;
69534;SDS011;56754;51.568;5.048;2022-09-01T15:35:17;1.98;;;0.80;;
69534;SDS011;56754;51.568;5.048;2022-09-01T15:37:44;2.78;;;0.80;;
69534;SDS011;56754;51.568;5.048;2022-09-01T15:40:10;1.67;;;0.70;;
69534;SDS011;56754;51.568;5.048;2022-09-01T15:42:36;1.63;;;0.60;;
69534;SDS011;56754;51.568;5.048;2022-09-01T15:45:06;2.10;;;0.70;;
69534;SDS011;56754;51.568;5.048;2022-09-01T15:47:37;1.83;;;0.60;;
69534;SDS011;56754;51.568;5.048;2022-09-01T15:50:03;2.37;;;0.60;;
69534;SDS011;56754;51.568;5.048;2022-09-01T15:52:30;1.95;;;0.68;;
69534;SDS011;56754;51.568;5.048;2022-09-01T15:54:56;2.00;;;0.60;;
69534;SDS011;56754;51.568;5.048;2022-09-01T15:57:21;1.70;;;0.63;;
69534;SDS011;56754;51.568;5.048;2022-09-01T15:59:47;2.27;;;0.70;;
69534;SDS011;56754;51.568;5.048;2022-09-01T16:02:12;2.33;;;0.70;;
69534;SDS011;56754;51.568;5.048;2022-09-01T16:04:37;2.13;;;0.70;;
69534;SDS011;56754;51.568;5.048;2022-09-01T16:07:02;2.73;;;0.70;;
69534;SDS011;56754;51.568;5.048;2022-09-01T16:09:28;2.80;;;0.77;;